Rochford, South Dakota
Current Conditions -  °F | °C
As of 9:15 PM on Wednesday 28 Jan 2015 (Local Time) from KSPF Reporting Station
Broken Clouds Broken Clouds  
Wind Chill: 21°   Ceiling: 1700
Heat Index: 32°   Visibility: 10mi
Dew Point: 27°   Wind: 16mph
Humidity: 80%   Direction: 310°NW
Pressure: 30.31"   Gusts: NA
Location:  44.12°N, 103.72°W
Report Text: KSPF 290415Z AUTO 31014KT 10SM BKN017 00/M03 A3031 RMK AO2
Loading
Personal Weather Stations






























Interactive Weather Map New forecast layout! Learn more

10-Day Weather Forecast

Advertisements
Track Severe Weather on mobile